Time;durP1;ratioP1;P1;durP2;ratioP2;P2;SDS_P1;SDS_P2;PMS_P1;PMS_P2;Temp;Humidity;BMP_temperature;BMP_pressure;BME280_temperature;BME280_humidity;BME280_pressure;Samples;Min_cycle;Max_cycle;Signal;HPM_P1;HPM_P2
2022/04/12 00:00:11;;;;;;;0.73;0.63;;;17.80;50.90;;;;;;5121865;27;45430;-84
2022/04/12 00:02:38;;;;;;;0.93;0.77;;;17.80;50.60;;;;;;5123160;27;45434;-84
2022/04/12 00:05:06;;;;;;;1.55;0.90;;;17.80;50.70;;;;;;5123138;27;46591;-84
2022/04/12 00:07:33;;;;;;;0.80;0.60;;;17.90;50.80;;;;;;5127918;27;45763;-84
2022/04/12 00:10:02;;;;;;;1.52;0.90;;;17.90;50.60;;;;;;5127129;27;45093;-84
2022/04/12 00:12:29;;;;;;;1.00;0.88;;;17.90;50.20;;;;;;5125365;27;45209;-84
2022/04/12 00:14:55;;;;;;;2.25;1.00;;;17.80;50.00;;;;;;5123832;27;46600;-83
2022/04/12 00:20:08;;;;;;;1.92;1.10;;;17.90;50.30;;;;;;5123062;27;45703;-84
2022/04/12 00:22:35;;;;;;;2.95;1.05;;;17.80;50.10;;;;;;5130138;27;45269;-84
2022/04/12 00:25:03;;;;;;;1.42;1.02;;;17.80;50.30;;;;;;5131412;27;46470;-84
2022/04/12 00:27:30;;;;;;;2.00;0.98;;;17.80;50.00;;;;;;5129244;27;45221;-84
2022/04/12 00:29:57;;;;;;;1.00;0.80;;;17.80;50.20;;;;;;5125130;27;45238;-84
2022/04/12 00:32:24;;;;;;;1.27;0.90;;;17.80;50.50;;;;;;5132076;27;45298;-84
2022/04/12 00:34:51;;;;;;;1.55;0.90;;;17.80;50.30;;;;;;5129981;27;47877;-84
2022/04/12 00:37:17;;;;;;;1.20;0.90;;;17.80;50.00;;;;;;5130076;27;45527;-84
2022/04/12 00:39:44;;;;;;;1.08;0.88;;;17.90;50.20;;;;;;5129874;27;45292;-84
2022/04/12 00:42:12;;;;;;;1.20;0.85;;;17.90;50.00;;;;;;5128435;27;45336;-84
2022/04/12 00:44:39;;;;;;;0.70;0.70;;;17.90;49.90;;;;;;5126999;27;47433;-84
2022/04/12 00:47:06;;;;;;;2.03;0.93;;;17.90;49.90;;;;;;5131481;27;45235;-84
2022/04/12 00:49:33;;;;;;;1.13;0.93;;;17.90;50.30;;;;;;5126672;27;45421;-84
2022/04/12 00:52:00;;;;;;;1.58;0.80;;;17.90;49.70;;;;;;5122583;27;45355;-84
2022/04/12 00:54:28;;;;;;;1.27;1.00;;;17.80;49.20;;;;;;5131725;27;47046;-84
2022/04/12 00:56:55;;;;;;;1.00;0.73;;;17.80;49.10;;;;;;5127628;27;45153;-84
2022/04/12 00:59:26;;;;;;;2.67;1.10;;;17.80;49.70;;;;;;5130037;27;45361;-82
2022/04/12 01:01:53;;;;;;;1.40;0.90;;;17.80;49.80;;;;;;5131700;27;45173;-82
2022/04/12 01:04:19;;;;;;;1.73;0.80;;;17.80;50.20;;;;;;5128589;27;46145;-82
2022/04/12 01:06:47;;;;;;;0.90;0.70;;;17.80;50.50;;;;;;5128435;27;45241;-82
2022/04/12 01:09:14;;;;;;;1.52;0.93;;;17.80;50.50;;;;;;5127903;27;46107;-82
2022/04/12 01:11:41;;;;;;;1.35;0.80;;;17.80;50.30;;;;;;5124998;27;45355;-82
2022/04/12 01:14:08;;;;;;;1.65;1.00;;;17.80;50.00;;;;;;5129192;27;45992;-83
2022/04/12 01:16:36;;;;;;;1.75;1.10;;;17.80;50.00;;;;;;5129818;27;45669;-83
2022/04/12 01:19:03;;;;;;;1.20;0.90;;;17.80;49.70;;;;;;5124586;27;45586;-83
2022/04/12 01:21:32;;;;;;;1.20;1.00;;;17.80;50.00;;;;;;5131412;27;45346;-83
2022/04/12 01:24:02;;;;;;;1.15;0.88;;;17.80;50.30;;;;;;5130234;27;47381;-83
2022/04/12 01:26:29;;;;;;;1.20;0.90;;;17.80;49.80;;;;;;5129733;27;45525;-82
2022/04/12 01:28:56;;;;;;;1.70;0.95;;;17.80;50.10;;;;;;5127840;27;45371;-83
2022/04/12 01:31:24;;;;;;;1.27;0.90;;;17.70;49.70;;;;;;5130364;27;45284;-83
2022/04/12 01:33:51;;;;;;;1.67;0.90;;;17.80;49.70;;;;;;5127339;27;47136;-83
2022/04/12 01:36:18;;;;;;;1.98;1.10;;;17.70;49.70;;;;;;5127624;27;45258;-84
2022/04/12 01:38:45;;;;;;;1.13;0.80;;;17.80;50.30;;;;;;5130170;27;45179;-83
2022/04/12 01:41:13;;;;;;;0.88;0.80;;;17.80;50.00;;;;;;5127577;27;45460;-83
2022/04/12 01:43:40;;;;;;;1.38;0.82;;;17.80;50.20;;;;;;5129758;27;45957;-83
2022/04/12 01:46:07;;;;;;;1.30;0.85;;;17.80;49.90;;;;;;5122689;27;45822;-83
2022/04/12 01:48:33;;;;;;;1.23;0.93;;;17.80;50.00;;;;;;5129435;27;45277;-83
2022/04/12 01:51:00;;;;;;;1.17;1.00;;;17.80;49.60;;;;;;5129501;27;45422;-83
2022/04/12 01:53:27;;;;;;;2.50;0.80;;;17.80;49.80;;;;;;5129533;27;47127;-83
2022/04/12 01:55:54;;;;;;;1.33;0.90;;;17.80;49.70;;;;;;5127529;27;45143;-84
2022/04/12 01:58:22;;;;;;;1.58;1.00;;;17.80;49.70;;;;;;5119366;27;45215;-83
2022/04/12 02:00:49;;;;;;;1.42;0.93;;;17.80;49.60;;;;;;5120740;27;45468;-83
2022/04/12 02:03:15;;;;;;;1.42;1.02;;;17.80;50.10;;;;;;5128928;27;47169;-83
2022/04/12 02:05:42;;;;;;;1.65;1.10;;;17.80;49.70;;;;;;5126696;27;45250;-83
2022/04/12 02:08:09;;;;;;;1.52;0.93;;;17.80;49.60;;;;;;5127457;27;45237;-84
2022/04/12 02:10:36;;;;;;;1.58;1.10;;;17.80;49.80;;;;;;5113049;27;45126;-83
2022/04/12 02:13:03;;;;;;;2.25;1.10;;;17.80;49.70;;;;;;5113262;27;47091;-84
2022/04/12 02:15:33;;;;;;;1.15;0.77;;;17.80;49.90;;;;;;5116501;27;45315;-83
2022/04/12 02:18:00;;;;;;;1.30;1.00;;;17.80;49.60;;;;;;5124530;27;45326;-83
2022/04/12 02:20:27;;;;;;;2.20;1.20;;;17.80;49.60;;;;;;5125385;27;45381;-83
2022/04/12 02:22:54;;;;;;;0.98;0.88;;;17.80;49.30;;;;;;5129822;27;48325;-84
2022/04/12 02:25:21;;;;;;;1.63;1.20;;;17.90;49.30;;;;;;5120746;27;45386;-83
2022/04/12 02:27:48;;;;;;;1.40;0.90;;;17.80;49.20;;;;;;5122489;27;45328;-83
2022/04/12 02:30:15;;;;;;;1.10;1.00;;;17.80;49.30;;;;;;5126528;27;46784;-82
2022/04/12 02:32:43;;;;;;;0.68;0.65;;;17.80;49.30;;;;;;5129716;27;45306;-82
2022/04/12 02:35:10;;;;;;;1.27;1.02;;;17.80;48.90;;;;;;5122911;27;45335;-82
2022/04/12 02:37:37;;;;;;;2.13;1.00;;;17.80;49.70;;;;;;5120429;27;45313;-83
2022/04/12 02:40:05;;;;;;;1.35;1.08;;;17.80;48.20;;;;;;5120352;27;45422;-82
2022/04/12 02:42:32;;;;;;;2.80;1.30;;;17.80;48.30;;;;;;5115233;27;45433;-83
2022/04/12 02:44:59;;;;;;;2.70;1.27;;;17.80;48.40;;;;;;5124262;27;45289;-83
2022/04/12 02:47:28;;;;;;;2.08;1.10;;;17.80;48.10;;;;;;5120859;27;45206;-83
2022/04/12 02:49:56;;;;;;;2.22;1.10;;;17.80;48.20;;;;;;5125207;27;45306;-83
2022/04/12 02:52:23;;;;;;;2.22;1.20;;;17.80;48.20;;;;;;5120199;27;48585;-82
2022/04/12 02:54:50;;;;;;;2.40;1.30;;;17.80;48.10;;;;;;5128934;27;45205;-83
2022/04/12 02:57:17;;;;;;;1.30;1.10;;;17.80;47.70;;;;;;5124941;27;45414;-81
2022/04/12 02:59:44;;;;;;;1.98;0.98;;;17.80;48.10;;;;;;5123845;27;45177;-81
2022/04/12 03:02:10;;;;;;;1.92;1.05;;;17.80;48.80;;;;;;5128072;27;46661;-80
2022/04/12 03:04:37;;;;;;;1.63;0.88;;;17.80;49.10;;;;;;5127057;27;45324;-81
2022/04/12 03:07:06;;;;;;;1.45;1.13;;;17.80;49.20;;;;;;5128603;27;45224;-80
2022/04/12 03:09:32;;;;;;;1.83;1.05;;;17.80;49.50;;;;;;5125696;27;45248;-82
2022/04/12 03:11:59;;;;;;;2.10;1.15;;;17.80;49.40;;;;;;5128406;27;47310;-82
2022/04/12 03:14:26;;;;;;;1.52;1.15;;;17.80;49.20;;;;;;5127496;27;45428;-83
2022/04/12 03:16:53;;;;;;;1.92;1.10;;;17.80;49.20;;;;;;5120641;27;45217;-82
2022/04/12 03:19:20;;;;;;;2.67;1.23;;;17.80;49.00;;;;;;5120671;27;45282;-83
2022/04/12 03:21:47;;;;;;;1.55;0.95;;;17.80;49.10;;;;;;5127858;27;46326;-83
2022/04/12 03:24:15;;;;;;;1.77;1.02;;;17.80;48.60;;;;;;5127281;27;46009;-83
2022/04/12 03:26:42;;;;;;;1.92;0.80;;;17.80;48.80;;;;;;5118960;27;45185;-83
2022/04/12 03:29:09;;;;;;;1.30;0.75;;;17.80;48.50;;;;;;5128043;27;45310;-83
2022/04/12 03:31:36;;;;;;;1.80;1.08;;;17.80;48.30;;;;;;5117793;27;47749;-83
2022/04/12 03:34:03;;;;;;;1.50;1.10;;;17.80;48.30;;;;;;5123931;27;45160;-83
2022/04/12 03:36:29;;;;;;;2.22;1.13;;;17.80;47.90;;;;;;5119053;27;45223;-83
2022/04/12 03:38:57;;;;;;;1.60;0.90;;;17.80;48.20;;;;;;5124861;27;45308;-84
2022/04/12 03:41:25;;;;;;;1.50;0.90;;;17.80;48.20;;;;;;5126131;27;46445;-83
2022/04/12 03:43:52;;;;;;;1.52;1.13;;;17.80;48.40;;;;;;5129392;27;45226;-82
2022/04/12 03:46:19;;;;;;;1.60;1.10;;;17.80;48.00;;;;;;5125692;27;45292;-83
2022/04/12 03:48:46;;;;;;;1.40;0.85;;;17.80;48.50;;;;;;5128200;27;45268;-82
2022/04/12 03:51:13;;;;;;;1.45;1.08;;;17.80;48.30;;;;;;5125400;27;45372;-83
2022/04/12 03:53:39;;;;;;;1.92;1.00;;;17.80;48.30;;;;;;5126600;27;46578;-83
2022/04/12 03:56:07;;;;;;;1.45;1.10;;;17.80;48.20;;;;;;5116733;27;46110;-82
2022/04/12 03:58:36;;;;;;;1.65;1.00;;;17.80;48.30;;;;;;5127280;27;45309;-83
2022/04/12 04:01:03;;;;;;;0.98;0.85;;;17.80;47.90;;;;;;5127251;27;47080;-83
2022/04/12 04:03:30;;;;;;;1.20;1.08;;;17.90;49.10;;;;;;5119025;27;45604;-83
2022/04/12 04:05:57;;;;;;;3.13;0.93;;;17.80;47.60;;;;;;5123352;27;45164;-82
2022/04/12 04:08:24;;;;;;;1.77;1.00;;;17.80;47.90;;;;;;5127086;27;45596;-83
2022/04/12 04:10:51;;;;;;;1.30;1.05;;;17.80;47.80;;;;;;5110335;27;45549;-82
2022/04/12 04:13:18;;;;;;;3.03;0.95;;;17.80;47.70;;;;;;5127323;27;45280;-83
2022/04/12 04:15:46;;;;;;;1.10;0.90;;;17.80;47.50;;;;;;5120516;27;45290;-83
2022/04/12 04:18:14;;;;;;;1.45;0.82;;;17.80;47.60;;;;;;5125716;27;45480;-82
2022/04/12 04:20:42;;;;;;;2.13;1.40;;;17.80;47.70;;;;;;5118084;27;47944;-82
2022/04/12 04:23:09;;;;;;;1.58;1.00;;;17.80;47.90;;;;;;5113684;27;45306;-83
2022/04/12 04:25:36;;;;;;;1.63;1.05;;;17.80;47.70;;;;;;5125351;27;45259;-82
2022/04/12 04:28:05;;;;;;;1.50;0.98;;;17.80;47.70;;;;;;5124106;27;45506;-83
2022/04/12 04:30:33;;;;;;;2.08;1.25;;;17.80;47.50;;;;;;5127095;27;45476;-83
2022/04/12 04:33:02;;;;;;;1.10;0.85;;;17.80;47.50;;;;;;5117966;27;45416;-82
2022/04/12 04:35:28;;;;;;;1.48;1.10;;;17.90;47.40;;;;;;5126222;27;45221;-82
2022/04/12 04:37:55;;;;;;;1.02;0.80;;;17.90;47.40;;;;;;5121844;27;45448;-82
2022/04/12 04:40:23;;;;;;;1.23;1.10;;;17.80;47.60;;;;;;5125860;27;45236;-82
2022/04/12 04:42:52;;;;;;;2.40;1.38;;;17.80;45.70;;;;;;5127408;27;45284;-82
2022/04/12 04:45:19;;;;;;;1.70;0.98;;;17.80;45.90;;;;;;5127694;27;45612;-82
2022/04/12 04:47:51;;;;;;;1.38;1.10;;;17.80;45.80;;;;;;5119204;27;45322;-81
2022/04/12 04:50:20;;;;;;;2.47;1.42;;;17.80;45.80;;;;;;5127037;27;46419;-82
2022/04/12 04:52:47;;;;;;;1.38;1.00;;;17.80;46.10;;;;;;5124661;27;45610;-82
2022/04/12 04:55:15;;;;;;;1.30;1.20;;;17.80;46.40;;;;;;5120218;27;45384;-82
2022/04/12 04:57:42;;;;;;;1.67;1.20;;;17.80;47.00;;;;;;5126162;27;45301;-82
2022/04/12 05:00:15;;;;;;;1.98;1.20;;;17.80;46.70;;;;;;5124322;27;46568;-82
2022/04/12 05:02:42;;;;;;;1.20;0.93;;;17.80;47.00;;;;;;5112762;27;45341;-81
2022/04/12 05:05:09;;;;;;;1.27;0.88;;;17.80;47.20;;;;;;5120990;27;45328;-81
2022/04/12 05:07:37;;;;;;;1.00;0.88;;;17.80;46.80;;;;;;5114639;27;45699;-80
2022/04/12 05:10:07;;;;;;;0.90;0.80;;;17.80;46.30;;;;;;5119067;27;45329;-80
2022/04/12 05:12:34;;;;;;;1.30;1.08;;;17.80;47.90;;;;;;5125442;27;45336;-80
2022/04/12 05:15:01;;;;;;;1.50;1.10;;;17.80;47.70;;;;;;5120354;27;45230;-80
2022/04/12 05:17:29;;;;;;;1.33;1.00;;;17.80;47.40;;;;;;5125967;27;45392;-80
2022/04/12 05:19:57;;;;;;;1.05;0.95;;;17.70;47.60;;;;;;5121564;27;46158;-81
2022/04/12 05:22:25;;;;;;;1.15;0.77;;;17.70;47.70;;;;;;5123215;27;45481;-81
2022/04/12 05:24:54;;;;;;;1.13;0.80;;;17.70;47.50;;;;;;5123696;27;45220;-81
2022/04/12 05:27:21;;;;;;;1.63;1.08;;;17.70;48.10;;;;;;5120436;27;45431;-81
2022/04/12 05:29:48;;;;;;;1.98;1.00;;;17.70;47.70;;;;;;5126577;27;46634;-84
2022/04/12 05:32:15;;;;;;;1.23;0.90;;;17.80;47.70;;;;;;5129942;27;45104;-82
2022/04/12 05:34:43;;;;;;;1.95;1.00;;;17.80;47.70;;;;;;5127649;27;45456;-83
2022/04/12 05:37:10;;;;;;;1.10;0.90;;;17.70;48.10;;;;;;5127575;27;45486;-83
2022/04/12 05:39:37;;;;;;;2.53;1.00;;;17.70;48.70;;;;;;5127329;27;46205;-83
2022/04/12 05:42:06;;;;;;;1.25;0.85;;;17.70;49.30;;;;;;5119098;27;45615;-84
2022/04/12 05:44:33;;;;;;;2.45;1.20;;;17.70;49.30;;;;;;5129935;27;45224;-86
2022/04/12 05:47:01;;;;;;;1.13;0.90;;;17.70;49.00;;;;;;5129145;27;45433;-85
2022/04/12 05:49:28;;;;;;;1.80;1.20;;;17.70;48.40;;;;;;5125129;27;47087;-82
2022/04/12 05:51:55;;;;;;;1.95;1.25;;;17.70;47.70;;;;;;5128809;27;45345;-82
2022/04/12 05:54:23;;;;;;;1.63;1.08;;;17.70;47.40;;;;;;5123366;27;45267;-82
2022/04/12 05:56:49;;;;;;;1.80;0.95;;;17.70;47.50;;;;;;5121222;27;45353;-84
2022/04/12 05:59:18;;;;;;;1.92;1.08;;;17.70;47.70;;;;;;5129071;27;48135;-83
2022/04/12 06:01:45;;;;;;;2.13;1.10;;;17.70;47.90;;;;;;5129463;27;45527;-83
2022/04/12 06:04:11;;;;;;;4.15;0.85;;;17.70;47.60;;;;;;5125259;27;45485;-81
2022/04/12 06:06:41;;;;;;;1.08;0.70;;;17.70;47.80;;;;;;5123584;27;45675;-80
2022/04/12 06:09:08;;;;;;;1.13;0.70;;;17.70;49.80;;;;;;5123993;27;47565;-79
2022/04/12 06:11:35;;;;;;;1.85;1.13;;;17.70;49.90;;;;;;5125441;27;45662;-84
2022/04/12 06:14:01;;;;;;;2.80;1.02;;;17.80;49.70;;;;;;5127982;27;45178;-82
2022/04/12 06:16:29;;;;;;;1.35;0.75;;;17.80;48.70;;;;;;5119642;27;45432;-82
2022/04/12 06:18:56;;;;;;;1.30;0.93;;;17.90;49.10;;;;;;5114224;27;48637;-82
2022/04/12 06:21:23;;;;;;;1.77;1.10;;;17.90;49.70;;;;;;5116337;27;45810;-83
2022/04/12 06:23:50;;;;;;;2.65;0.80;;;17.90;50.00;;;;;;5126369;27;45563;-83
2022/04/12 06:26:17;;;;;;;0.80;0.80;;;17.90;50.30;;;;;;5115932;27;45512;-83
2022/04/12 06:28:44;;;;;;;1.48;0.80;;;17.90;50.00;;;;;;5128212;27;47110;-84
2022/04/12 06:31:11;;;;;;;2.47;1.02;;;17.90;50.00;;;;;;5126196;27;45246;-84
2022/04/12 06:33:39;;;;;;;1.17;0.80;;;17.90;49.90;;;;;;5121779;27;45744;-84
2022/04/12 06:36:06;;;;;;;0.93;0.68;;;17.90;49.80;;;;;;5127861;27;45313;-84
2022/04/12 06:38:33;;;;;;;0.98;0.80;;;18.00;49.90;;;;;;5119611;27;45303;-84
2022/04/12 06:41:00;;;;;;;1.33;0.90;;;18.00;49.80;;;;;;5128147;27;45327;-84
2022/04/12 06:43:27;;;;;;;1.35;0.82;;;18.00;51.70;;;;;;5121788;27;45294;-84
2022/04/12 06:45:54;;;;;;;2.50;1.00;;;18.10;52.30;;;;;;5126072;27;45191;-82
2022/04/12 06:48:20;;;;;;;2.35;0.85;;;18.30;51.10;;;;;;5123672;27;45355;-83
2022/04/12 06:50:48;;;;;;;2.03;1.10;;;18.60;50.90;;;;;;5130075;27;45851;-82
2022/04/12 06:53:15;;;;;;;1.63;0.95;;;18.90;52.00;;;;;;5127663;27;45611;-83
2022/04/12 06:55:42;;;;;;;2.05;1.00;;;19.10;50.70;;;;;;5127052;27;45137;-82
2022/04/12 06:58:09;;;;;;;1.52;0.93;;;19.40;50.60;;;;;;5131450;27;46606;-83
2022/04/12 07:00:36;;;;;;;2.10;1.00;;;19.60;50.70;;;;;;5129500;27;45289;-83
2022/04/12 07:03:03;;;;;;;2.10;1.20;;;19.80;50.70;;;;;;5127268;27;45226;-83
2022/04/12 07:05:30;;;;;;;2.63;1.00;;;20.00;51.00;;;;;;5128634;27;45427;-82
2022/04/12 07:07:58;;;;;;;1.95;1.10;;;20.10;51.10;;;;;;5126273;27;45386;-83
2022/04/12 07:10:25;;;;;;;1.95;1.10;;;20.30;51.10;;;;;;5123470;27;45285;-82
2022/04/12 07:12:53;;;;;;;1.95;1.15;;;20.40;51.30;;;;;;5127847;27;45179;-82
2022/04/12 07:15:21;;;;;;;2.92;1.20;;;20.60;51.60;;;;;;5124179;27;45452;-82
2022/04/12 07:17:48;;;;;;;2.65;1.17;;;20.70;51.40;;;;;;5127532;27;45341;-82
2022/04/12 07:20:14;;;;;;;4.10;1.33;;;20.70;50.00;;;;;;5127815;27;45225;-82
2022/04/12 07:22:41;;;;;;;1.80;0.95;;;20.70;49.70;;;;;;5125110;27;45228;-83
2022/04/12 07:25:10;;;;;;;2.58;1.33;;;20.60;49.20;;;;;;5127202;27;45233;-82
2022/04/12 07:27:38;;;;;;;1.10;0.82;;;20.50;49.60;;;;;;5129683;27;45483;-83
2022/04/12 07:30:07;;;;;;;1.90;1.02;;;20.50;49.40;;;;;;5125115;27;45514;-82
2022/04/12 07:32:34;;;;;;;3.03;1.20;;;20.60;50.00;;;;;;5114535;27;45498;-83
2022/04/12 07:35:00;;;;;;;4.00;1.60;;;20.60;50.60;;;;;;5116194;27;45777;-83
2022/04/12 07:37:27;;;;;;;2.90;1.25;;;20.70;49.70;;;;;;5120571;27;46509;-82
2022/04/12 07:39:56;;;;;;;3.65;1.30;;;20.60;49.50;;;;;;5126064;27;45290;-83
2022/04/12 07:42:24;;;;;;;18.52;3.15;;;20.60;49.30;;;;;;5119757;27;45536;-79
2022/04/12 07:44:51;;;;;;;4.57;1.58;;;20.40;49.70;;;;;;5125392;27;45475;-84
2022/04/12 07:47:18;;;;;;;9.82;1.90;;;20.00;49.20;;;;;;5123365;27;47369;-82
2022/04/12 07:49:45;;;;;;;10.23;1.90;;;19.50;49.60;;;;;;5114890;27;45185;-82
2022/04/12 07:52:12;;;;;;;4.20;1.52;;;19.20;49.70;;;;;;5124053;27;45202;-82
2022/04/12 07:54:38;;;;;;;11.32;1.48;;;18.90;50.20;;;;;;5126906;27;45238;-82
2022/04/12 07:57:06;;;;;;;3.55;1.23;;;18.90;50.10;;;;;;5125448;27;45877;-83
2022/04/12 07:59:34;;;;;;;4.75;1.30;;;18.80;50.10;;;;;;5127031;27;45336;-83
2022/04/12 08:02:01;;;;;;;6.30;1.75;;;18.80;51.70;;;;;;5121123;27;45364;-83
2022/04/12 08:04:28;;;;;;;2.83;1.13;;;18.70;50.50;;;;;;5127594;27;45094;-83
2022/04/12 08:06:55;;;;;;;3.67;1.60;;;18.70;50.60;;;;;;5124126;27;45393;-84
2022/04/12 08:09:22;;;;;;;2.13;1.20;;;18.70;50.50;;;;;;5126171;27;46741;-83
2022/04/12 08:11:48;;;;;;;3.20;0.95;;;18.70;50.10;;;;;;5128694;27;45222;-82
2022/04/12 08:14:15;;;;;;;4.82;1.25;;;18.80;50.30;;;;;;5125914;27;45132;-83
2022/04/12 08:16:44;;;;;;;3.35;1.15;;;18.80;50.10;;;;;;5128594;27;47310;-82
2022/04/12 08:19:10;;;;;;;2.63;1.30;;;18.80;50.20;;;;;;5121762;27;45214;-83
2022/04/12 08:21:39;;;;;;;2.47;1.25;;;18.80;50.10;;;;;;5126572;27;45313;-82
2022/04/12 08:24:08;;;;;;;1.95;0.90;;;18.80;50.20;;;;;;5128098;27;45233;-83
2022/04/12 08:26:35;;;;;;;2.30;0.98;;;18.70;50.00;;;;;;5127797;27;47446;-81
2022/04/12 08:29:02;;;;;;;1.73;0.80;;;18.70;50.20;;;;;;5122924;27;45477;-81
2022/04/12 08:31:28;;;;;;;2.78;1.38;;;18.70;50.30;;;;;;5128290;27;45327;-82
2022/04/12 08:33:56;;;;;;;1.73;0.90;;;18.70;50.20;;;;;;5119775;27;45332;-81
2022/04/12 08:36:25;;;;;;;1.98;1.20;;;18.70;51.50;;;;;;5118274;27;47412;-82
2022/04/12 08:38:52;;;;;;;2.58;0.90;;;18.70;50.30;;;;;;5118821;27;45312;-81
2022/04/12 08:41:22;;;;;;;2.92;1.23;;;18.70;50.20;;;;;;5118131;27;45290;-78
2022/04/12 08:43:54;;;;;;;1.77;1.00;;;18.70;50.50;;;;;;5123049;27;45417;-79
2022/04/12 08:46:24;;;;;;;3.20;1.20;;;18.60;50.40;;;;;;5130654;27;47875;-84
2022/04/12 08:48:52;;;;;;;41.33;3.22;;;18.60;50.40;;;;;;5123898;27;45230;-78
2022/04/12 08:51:21;;;;;;;7.97;1.50;;;18.70;52.90;;;;;;5130920;27;45192;-79
2022/04/12 08:53:48;;;;;;;6.60;1.73;;;18.70;52.30;;;;;;5130821;27;45179;-78
2022/04/12 08:56:15;;;;;;;9.68;3.00;;;18.70;52.20;;;;;;5128117;27;45306;-79
2022/04/12 08:58:42;;;;;;;12.13;1.98;;;18.70;53.40;;;;;;5123712;27;45665;-79
2022/04/12 09:01:09;;;;;;;5.43;1.63;;;18.70;52.40;;;;;;5127099;27;45330;-78
2022/04/12 09:03:35;;;;;;;6.15;1.75;;;18.60;52.50;;;;;;5127120;27;45335;-78
2022/04/12 09:06:03;;;;;;;9.95;1.80;;;18.60;52.80;;;;;;5129142;27;46204;-78
2022/04/12 09:08:33;;;;;;;8.55;2.15;;;18.60;52.10;;;;;;5125798;27;45524;-79
2022/04/12 09:11:01;;;;;;;16.20;4.25;;;18.60;52.00;;;;;;5119386;27;45380;-78
2022/04/12 09:13:29;;;;;;;14.32;4.65;;;18.60;52.80;;;;;;5119767;27;45292;-78
2022/04/12 09:15:56;;;;;;;8.07;3.00;;;18.60;52.80;;;;;;5119891;27;46171;-78
2022/04/12 09:18:34;;;;;;;8.85;2.83;;;18.60;52.80;;;;;;5125033;27;45224;-79
2022/04/12 09:21:11;;;;;;;6.53;2.53;;;18.60;54.00;;;;;;5121701;27;45306;-79
2022/04/12 09:23:42;;;;;;;6.43;3.00;;;18.60;52.80;;;;;;5127397;27;45586;-77
2022/04/12 09:26:09;;;;;;;8.48;2.60;;;18.70;52.90;;;;;;5123561;27;47332;-78
2022/04/12 09:28:43;;;;;;;10.38;3.03;;;18.60;52.80;;;;;;5121967;27;45229;-78
2022/04/12 09:31:14;;;;;;;7.63;2.35;;;18.70;54.10;;;;;;5115051;27;45604;-78
2022/04/12 09:33:42;;;;;;;11.40;2.67;;;18.50;52.70;;;;;;5120339;27;45305;-78
2022/04/12 09:36:09;;;;;;;6.43;2.25;;;18.50;52.70;;;;;;5126010;27;47771;-78
2022/04/12 09:38:37;;;;;;;7.32;2.30;;;18.50;52.70;;;;;;5127493;27;45254;-78
2022/04/12 09:41:20;;;;;;;3.90;2.28;;;18.40;52.90;;;;;;5123497;27;45178;-79
2022/04/12 09:43:54;;;;;;;7.75;2.28;;;18.40;52.60;;;;;;5125902;27;45236;-78
2022/04/12 09:46:21;;;;;;;5.43;2.50;;;18.40;52.60;;;;;;5125890;27;46595;-78
2022/04/12 09:48:48;;;;;;;4.18;1.70;;;18.40;52.60;;;;;;5122576;27;45340;-78
2022/04/12 09:51:15;;;;;;;6.00;2.28;;;18.40;52.60;;;;;;5130315;27;45447;-78
2022/04/12 09:53:45;;;;;;;4.13;1.73;;;18.40;52.60;;;;;;5128781;27;45178;-78
2022/04/12 09:56:16;;;;;;;4.13;1.80;;;18.40;53.80;;;;;;5125375;27;46312;-78
2022/04/12 09:58:46;;;;;;;7.10;2.22;;;18.50;52.70;;;;;;5124566;27;45234;-78
2022/04/12 10:01:13;;;;;;;4.72;1.63;;;18.40;52.60;;;;;;5130139;27;45379;-78
2022/04/12 10:03:44;;;;;;;4.72;1.70;;;18.50;52.70;;;;;;5124208;27;45207;-78
2022/04/12 10:06:13;;;;;;;2.70;1.55;;;18.40;52.60;;;;;;5125128;27;47112;-78
2022/04/12 10:08:41;;;;;;;5.32;1.55;;;18.40;53.90;;;;;;5125938;27;45770;-78
2022/04/12 10:11:08;;;;;;;4.07;1.60;;;18.40;52.60;;;;;;5128778;27;45267;-78
2022/04/12 10:13:36;;;;;;;3.55;1.38;;;18.40;52.60;;;;;;5127907;27;45479;-78
2022/04/12 10:16:05;;;;;;;3.72;1.48;;;18.40;52.50;;;;;;5129274;27;46073;-78
2022/04/12 10:18:34;;;;;;;5.18;1.73;;;18.40;52.60;;;;;;5123572;27;45767;-78
2022/04/12 10:21:01;;;;;;;2.72;1.50;;;18.40;52.60;;;;;;5129298;27;45231;-78
2022/04/12 10:23:30;;;;;;;1.45;1.10;;;18.50;52.70;;;;;;5128294;27;45472;-78
2022/04/12 10:25:58;;;;;;;2.45;1.42;;;18.40;52.60;;;;;;5130213;27;45483;-78
2022/04/12 10:28:29;;;;;;;13.52;1.98;;;18.40;52.60;;;;;;5127420;27;45275;-77
2022/04/12 10:31:25;;;;;;;6.53;1.70;;;18.50;52.70;;;;;;5127103;27;45219;-77
2022/04/12 10:33:54;;;;;;;4.22;1.38;;;18.50;52.70;;;;;;5114868;27;45413;-77
2022/04/12 10:36:21;;;;;;;4.18;1.50;;;18.50;52.70;;;;;;5121680;27;45491;-77
2022/04/12 10:38:48;;;;;;;2.83;1.33;;;18.50;52.70;;;;;;5119765;27;45204;-77
2022/04/12 10:41:29;;;;;;;3.15;1.25;;;18.50;52.70;;;;;;5127444;27;45199;-77
2022/04/12 10:43:57;;;;;;;6.05;1.35;;;18.50;52.60;;;;;;5123794;27;46022;-77
2022/04/12 10:46:45;;;;;;;3.40;1.55;;;18.50;52.70;;;;;;5128271;27;46536;-78
2022/04/12 10:49:13;;;;;;;2.60;1.45;;;18.50;52.70;;;;;;5128821;27;45188;-77
2022/04/12 10:51:40;;;;;;;3.38;1.40;;;18.40;52.60;;;;;;5121487;27;45399;-77
2022/04/12 10:54:27;;;;;;;4.65;1.95;;;18.50;52.70;;;;;;5126364;27;45129;-78
2022/04/12 10:57:22;;;;;;;6.03;1.58;;;18.40;52.60;;;;;;5122528;27;48246;-77
2022/04/12 10:59:51;;;;;;;9.45;1.45;;;18.40;52.60;;;;;;5117680;27;45309;-77
2022/04/12 11:02:20;;;;;;;3.40;1.30;;;18.50;52.70;;;;;;5122845;27;45452;-77
2022/04/12 11:04:47;;;;;;;3.03;1.40;;;18.50;52.70;;;;;;5121443;27;45184;-78
2022/04/12 11:07:29;;;;;;;2.38;1.30;;;18.40;52.60;;;;;;5119463;27;46608;-77
2022/04/12 11:10:24;;;;;;;3.78;1.35;;;18.40;52.60;;;;;;5114635;27;45671;-77
2022/04/12 11:13:04;;;;;;;5.45;1.80;;;18.40;52.60;;;;;;5122375;27;45419;-77
2022/04/12 11:15:32;;;;;;;3.63;1.23;;;18.40;52.60;;;;;;5120878;27;45595;-77
2022/04/12 11:18:12;;;;;;;2.45;1.27;;;18.40;52.70;;;;;;5118278;27;45420;-77
2022/04/12 11:20:41;;;;;;;2.35;1.30;;;18.40;52.70;;;;;;5122328;27;45289;-77
2022/04/12 11:23:10;;;;;;;3.63;1.20;;;18.40;52.90;;;;;;5118260;27;45633;-78
2022/04/12 11:25:48;;;;;;;1.95;1.00;;;18.40;52.60;;;;;;5123228;27;45707;-77
2022/04/12 11:28:17;;;;;;;1.95;1.27;;;18.40;52.60;;;;;;5115705;27;48010;-77
2022/04/12 11:30:54;;;;;;;4.30;1.20;;;18.40;52.60;;;;;;5123581;27;45374;-77
2022/04/12 11:33:26;;;;;;;1.40;0.90;;;18.40;52.60;;;;;;5121600;27;45510;-77
2022/04/12 11:35:53;;;;;;;3.08;1.15;;;18.40;52.60;;;;;;5128876;27;45276;-77
2022/04/12 11:38:21;;;;;;;2.33;1.20;;;18.40;52.70;;;;;;5118197;27;47055;-78
2022/04/12 11:40:48;;;;;;;2.90;1.30;;;18.40;52.70;;;;;;5118357;27;45594;-78
2022/04/12 11:43:23;;;;;;;3.33;1.00;;;18.40;52.80;;;;;;5122277;27;45325;-78
2022/04/12 11:45:53;;;;;;;2.33;1.05;;;18.40;53.50;;;;;;5127418;27;45261;-77
2022/04/12 11:48:20;;;;;;;1.45;1.00;;;18.40;53.60;;;;;;5120752;27;45497;-77
2022/04/12 11:50:52;;;;;;;1.48;0.90;;;18.30;53.50;;;;;;5126143;27;45309;-77
2022/04/12 11:53:21;;;;;;;2.92;1.38;;;18.40;53.80;;;;;;5122741;27;45384;-77
2022/04/12 11:55:48;;;;;;;1.77;1.00;;;18.40;53.70;;;;;;5125873;27;45207;-77
2022/04/12 11:58:15;;;;;;;2.22;1.05;;;18.40;53.30;;;;;;5114404;27;47371;-77
2022/04/12 12:00:42;;;;;;;4.72;0.90;;;18.40;52.60;;;;;;5119920;27;45511;-76
2022/04/12 12:03:16;;;;;;;2.22;0.88;;;18.40;52.70;;;;;;5124621;27;45223;-76
2022/04/12 12:05:43;;;;;;;2.40;1.00;;;18.40;52.90;;;;;;5128332;27;45273;-77
2022/04/12 12:08:12;;;;;;;1.85;1.00;;;18.50;53.20;;;;;;5125743;27;46490;-79
2022/04/12 12:10:39;;;;;;;1.33;0.88;;;18.50;52.70;;;;;;5123763;27;45670;-77
2022/04/12 12:13:08;;;;;;;1.33;0.77;;;18.50;52.70;;;;;;5113190;27;45218;-77
2022/04/12 12:15:35;;;;;;;1.42;0.70;;;18.50;52.70;;;;;;5121565;27;45437;-77
2022/04/12 12:18:05;;;;;;;1.67;0.80;;;18.50;52.90;;;;;;5125169;27;46601;-77
2022/04/12 12:20:34;;;;;;;1.98;0.90;;;18.50;53.30;;;;;;5127598;27;45833;-77
2022/04/12 12:23:03;;;;;;;2.10;0.95;;;18.50;53.20;;;;;;5124458;27;45239;-77
2022/04/12 12:25:42;;;;;;;1.95;0.90;;;18.50;53.40;;;;;;5128542;27;45385;-77
2022/04/12 12:28:15;;;;;;;2.60;0.90;;;18.50;53.40;;;;;;5122686;27;46177;-78
2022/04/12 12:30:42;;;;;;;1.15;0.70;;;18.50;53.10;;;;;;5126800;27;45155;-78
2022/04/12 12:33:10;;;;;;;1.20;0.70;;;18.50;52.70;;;;;;5121935;27;45454;-78
2022/04/12 12:35:41;;;;;;;2.13;0.93;;;18.50;52.70;;;;;;5125612;27;45443;-77
2022/04/12 12:38:11;;;;;;;2.08;0.80;;;18.50;52.70;;;;;;5127767;27;46240;-78
2022/04/12 12:40:40;;;;;;;1.55;0.75;;;18.50;52.70;;;;;;5121188;27;45842;-78
2022/04/12 12:43:09;;;;;;;2.63;0.93;;;18.50;52.70;;;;;;5116763;27;46822;-78
2022/04/12 12:45:38;;;;;;;1.35;0.70;;;18.50;52.70;;;;;;5124543;27;45206;-77
2022/04/12 12:48:08;;;;;;;1.65;0.80;;;18.50;53.10;;;;;;5114697;27;47385;-77
2022/04/12 12:50:38;;;;;;;0.65;0.57;;;18.50;52.90;;;;;;5120230;27;45338;-77
2022/04/12 12:53:07;;;;;;;2.20;0.82;;;18.40;53.70;;;;;;5127695;27;45320;-78